Terminal Aerodrome Forecast
Issued by NWS

Home | Current Version | Previous Version | Text Only | Print | Product List | Glossary On
Versions: 1 2 3 4 5 6 7 8 9 10 11 12 13 14 15 16 17 18 19 20 21 22 23 24
000
FTUS41 KBUF 260900 AAA
TAFIAG
TAF AMD
KIAG 260900Z 2609/2706 21005KT P6SM BKN100
     FM261400 21013KT P6SM OVC080
     FM270000 22009KT P6SM VCSH BKN060
     FM270300 22009KT 6SM -SHRA BKN045=

USA.gov is the U.S. government's official web portal to all federal, state and local government web resources and services.